West Liberty, Ohio
Current Conditions -  °F | °C
As of 3:30 AM on Friday 28 Nov 2014 (Local Time) from KEDJ Reporting Station
Overcast Overcast  
Wind Chill: 14°   Ceiling: 1300
Heat Index: 23°   Visibility: 10mi
Dew Point: 18°   Wind: 8mph
Humidity: 80%   Direction: 270°W
Pressure: 30.34"   Gusts: NA
Location:  40.25°N, 83.76°W
Report Text: KEDJ 280830Z AUTO 27007KT 10SM OVC013 M05/M08 A3034 RMK AO1
Loading
Personal Weather Stations






























Interactive Weather Map New forecast layout! Learn more

10-Day Weather Forecast

Advertisements
Track Severe Weather on mobile